Monticello, Minnesota
Current Conditions -  °F | °C
As of 2:15 PM on Thursday 29 Jan 2015 (Local Time) from KCFE Reporting Station
Overcast Overcast  
Wind Chill: 13°   Ceiling: 2400
Heat Index: 26°   Visibility: 10mi
Dew Point: 16°   Wind: 16mph
Humidity: 66%   Direction: 300°WNW
Pressure: 30.33"   Gusts: 21mph
Location:  45.3°N, 93.8°W
Report Text: KCFE 292015Z AUTO 30014G18KT 10SM OVC024 M03/M09 A3033 RMK AO2 T10351090
Loading
Personal Weather Stations






























Interactive Weather Map New forecast layout! Learn more

10-Day Weather Forecast

Advertisements
Track Severe Weather on mobile